Time;durP1;ratioP1;P1;durP2;ratioP2;P2;SDS_P1;SDS_P2;PMS_P1;PMS_P2;Temp;Humidity;BMP_temperature;BMP_pressure;BME280_temperature;BME280_humidity;BME280_pressure;Samples;Min_cycle;Max_cycle;Signal;HPM_P1;HPM_P2
2023/08/19 00:00:16;;;;;;;10.13;5.00;;;;;;;17.90;100.00;96568.31;5035914;28;20044;-67
2023/08/19 00:02:42;;;;;;;8.93;4.75;;;;;;;17.90;100.00;96568.31;5034513;28;20060;-68
2023/08/19 00:05:08;;;;;;;10.15;5.13;;;;;;;18.01;100.00;96565.38;5033821;28;20052;-68
2023/08/19 00:07:33;;;;;;;12.05;5.03;;;;;;;18.09;100.00;96562.06;5035422;28;20029;-68
2023/08/19 00:10:02;;;;;;;8.40;4.68;;;;;;;18.23;100.00;96571.38;5034722;28;20029;-67
2023/08/19 00:12:28;;;;;;;18.63;5.13;;;;;;;18.22;100.00;96567.03;5034119;28;20021;-67
2023/08/19 00:14:57;;;;;;;9.90;5.00;;;;;;;18.04;100.00;96567.28;5035757;28;20108;-68
2023/08/19 00:17:23;;;;;;;13.40;5.13;;;;;;;18.02;100.00;96567.72;5036010;28;20068;-68
2023/08/19 00:19:50;;;;;;;14.30;5.53;;;;;;;18.12;100.00;96564.00;5046145;28;20089;-66
2023/08/19 00:22:15;;;;;;;11.18;4.70;;;;;;;18.21;100.00;96571.00;5035613;28;20045;-68
2023/08/19 00:24:41;;;;;;;9.77;4.80;;;;;;;18.40;100.00;96572.28;5036014;28;20037;-66
2023/08/19 00:27:06;;;;;;;11.07;4.22;;;;;;;18.73;100.00;96574.06;5033549;28;20026;-68
2023/08/19 00:29:32;;;;;;;15.18;5.40;;;;;;;19.27;100.00;96575.88;5033638;28;20025;-68
2023/08/19 00:31:57;;;;;;;11.13;4.05;;;;;;;19.38;100.00;96563.78;5032867;28;20034;-66
2023/08/19 00:34:22;;;;;;;9.43;4.15;;;;;;;19.38;100.00;96572.09;5034176;28;20034;-67
2023/08/19 00:36:48;;;;;;;8.48;4.25;;;;;;;19.38;100.00;96561.78;5033802;28;20034;-67
2023/08/19 00:39:14;;;;;;;8.95;4.40;;;;;;;19.31;100.00;96569.47;5034592;28;20033;-67
2023/08/19 00:41:39;;;;;;;10.25;3.85;;;;;;;19.23;100.00;96566.84;5034730;28;20487;-66
2023/08/19 00:44:05;;;;;;;9.48;4.20;;;;;;;19.22;100.00;96572.81;5033323;28;20108;-69
2023/08/19 00:46:32;;;;;;;11.55;4.32;;;;;;;19.24;100.00;96578.72;5031734;28;20067;-65
2023/08/19 00:48:59;;;;;;;9.52;4.35;;;;;;;19.32;100.00;96584.91;5032129;28;20030;-66
2023/08/19 00:51:25;;;;;;;13.55;4.50;;;;;;;19.35;100.00;96584.06;5032361;28;20028;-66
2023/08/19 00:53:52;;;;;;;15.60;4.43;;;;;;;19.19;100.00;96585.53;5031640;28;20056;-66
2023/08/19 00:56:18;;;;;;;10.75;4.28;;;;;;;18.91;100.00;96581.34;5033432;28;20064;-66
2023/08/19 00:58:43;;;;;;;9.63;4.30;;;;;;;18.78;100.00;96585.88;5036077;28;20112;-66
2023/08/19 01:01:09;;;;;;;10.57;4.47;;;;;;;18.59;100.00;96585.41;5035927;28;20522;-66
2023/08/19 01:03:34;;;;;;;15.50;4.93;;;;;;;18.53;100.00;96585.13;5035860;28;20537;-66
2023/08/19 01:06:20;;;;;;;10.90;4.90;;;;;;;18.47;100.00;96581.25;5035924;28;20037;-67
2023/08/19 01:09:30;;;;;;;20.27;5.13;;;;;;;18.42;100.00;96578.19;5035982;28;20037;-66
2023/08/19 01:11:58;;;;;;;;;;;;;;;18.26;100.00;96576.84;5013981;28;20036;-66
2023/08/19 01:14:39;;;;;;;11.80;4.68;;;;;;;18.22;100.00;96567.03;5032648;28;20297;-66
2023/08/19 01:17:10;;;;;;;13.10;4.82;;;;;;;18.18;100.00;96569.84;5035946;28;20061;-67
2023/08/19 01:19:36;;;;;;;11.70;4.57;;;;;;;18.11;100.00;96569.97;5036111;28;20040;-66
2023/08/19 01:22:04;;;;;;;11.23;4.82;;;;;;;18.02;100.00;96564.94;5035368;28;20033;-67
2023/08/19 01:24:40;;;;;;;13.80;5.43;;;;;;;17.90;100.00;96571.84;5034121;28;20040;-67
2023/08/19 01:27:21;;;;;;;15.15;4.82;;;;;;;17.81;100.00;96568.00;5035415;28;20401;-67
2023/08/19 01:29:47;;;;;;;12.02;5.57;;;;;;;17.80;100.00;96580.28;5035453;28;20076;-67
2023/08/19 01:32:13;;;;;;;10.93;5.68;;;;;;;17.47;100.00;96564.13;5034884;28;20065;-66
2023/08/19 01:34:38;;;;;;;13.85;4.97;;;;;;;17.38;100.00;96566.59;5035430;28;20037;-67
2023/08/19 01:37:11;;;;;;;15.48;5.47;;;;;;;17.38;100.00;96566.59;5035312;28;20087;-67
2023/08/19 01:39:38;;;;;;;11.65;5.40;;;;;;;17.34;100.00;96566.66;5035297;28;20487;-67
2023/08/19 01:42:04;;;;;;;10.52;5.00;;;;;;;17.39;100.00;96571.72;5034949;28;20049;-68
2023/08/19 01:44:31;;;;;;;11.50;5.13;;;;;;;17.49;100.00;96569.25;5035088;28;20487;-67
2023/08/19 01:46:56;;;;;;;9.52;5.30;;;;;;;17.51;100.00;96575.91;5034905;28;20172;-67
2023/08/19 01:49:22;;;;;;;10.75;4.82;;;;;;;17.63;100.00;96571.00;5035192;28;20037;-67
2023/08/19 01:51:48;;;;;;;9.65;5.03;;;;;;;17.66;100.00;96568.19;5035488;28;20483;-68
2023/08/19 01:54:13;;;;;;;11.05;4.93;;;;;;;17.57;100.00;96570.69;5035800;28;20040;-68
2023/08/19 01:56:39;;;;;;;8.93;5.07;;;;;;;17.62;100.00;96570.25;5035098;28;20037;-67
2023/08/19 01:59:04;;;;;;;9.15;5.10;;;;;;;17.64;100.00;96572.59;5034807;28;20059;-67
2023/08/19 02:01:30;;;;;;;9.55;4.90;;;;;;;17.67;100.00;96575.31;5034629;28;20040;-67
2023/08/19 02:03:55;;;;;;;8.10;5.03;;;;;;;17.63;100.00;96582.09;5034778;28;20108;-67
2023/08/19 02:06:20;;;;;;;12.30;4.90;;;;;;;17.56;100.00;96578.22;5034766;28;20459;-67
2023/08/19 02:08:46;;;;;;;12.10;4.63;;;;;;;17.57;100.00;96585.34;5032832;28;20041;-67
2023/08/19 02:11:11;;;;;;;10.07;4.70;;;;;;;17.43;100.00;96588.31;5034871;28;20036;-67
2023/08/19 02:13:36;;;;;;;14.38;4.80;;;;;;;17.32;100.00;96587.63;5034420;28;20057;-67
2023/08/19 02:16:02;;;;;;;11.23;5.10;;;;;;;17.20;100.00;96589.75;5034344;28;20029;-67
2023/08/19 02:18:28;;;;;;;17.98;5.78;;;;;;;17.10;100.00;96584.31;5034632;28;20152;-67
2023/08/19 02:20:53;;;;;;;12.32;5.25;;;;;;;17.07;100.00;96588.72;5034556;28;20042;-67
2023/08/19 02:23:19;;;;;;;15.02;5.35;;;;;;;17.14;100.00;96587.84;5034112;28;20541;-67
2023/08/19 02:25:44;;;;;;;9.52;4.88;;;;;;;17.11;100.00;96595.00;5034486;28;20037;-67
2023/08/19 02:28:10;;;;;;;9.07;5.05;;;;;;;17.10;100.00;96593.41;5034374;28;20030;-68
2023/08/19 02:30:35;;;;;;;11.43;4.60;;;;;;;17.24;100.00;96592.47;5033103;28;20021;-67
2023/08/19 02:33:07;;;;;;;8.88;5.13;;;;;;;17.25;100.00;96599.59;5035663;28;20029;-68
2023/08/19 02:35:33;;;;;;;14.10;5.53;;;;;;;17.28;100.00;96597.97;5034328;28;20091;-66
2023/08/19 02:37:58;;;;;;;13.57;4.90;;;;;;;17.26;100.00;96603.13;5034160;28;20108;-67
2023/08/19 02:40:24;;;;;;;12.23;5.45;;;;;;;17.27;100.00;96593.59;5034044;28;20119;-67
2023/08/19 02:42:50;;;;;;;10.40;4.50;;;;;;;17.30;100.00;96593.56;5033996;28;20065;-67
2023/08/19 02:45:15;;;;;;;9.10;5.00;;;;;;;17.32;100.00;96599.50;5033865;28;20138;-67
2023/08/19 02:47:40;;;;;;;9.90;5.07;;;;;;;17.23;100.00;96598.41;5033957;28;20041;-67
2023/08/19 02:50:06;;;;;;;13.30;5.78;;;;;;;17.22;100.00;96605.94;5034118;28;20045;-67
2023/08/19 02:52:32;;;;;;;11.65;5.20;;;;;;;17.22;100.00;96605.16;5033711;28;20479;-67
2023/08/19 02:54:57;;;;;;;14.10;6.20;;;;;;;17.27;100.00;96596.38;5036514;28;20394;-68
2023/08/19 02:57:22;;;;;;;9.35;5.38;;;;;;;17.29;100.00;96597.56;5036945;28;20061;-67
2023/08/19 02:59:48;;;;;;;13.82;5.72;;;;;;;17.11;100.00;96602.50;5035740;28;20650;-68
2023/08/19 03:02:13;;;;;;;9.50;5.32;;;;;;;17.01;100.00;96593.13;5034387;28;20056;-67
2023/08/19 03:04:39;;;;;;;12.13;5.88;;;;;;;17.10;100.00;96598.94;5034903;28;20080;-67
2023/08/19 03:07:04;;;;;;;12.82;5.53;;;;;;;17.05;100.00;96598.59;5034971;28;20029;-67
2023/08/19 03:09:29;;;;;;;10.27;6.22;;;;;;;16.98;100.00;96599.50;5034020;28;20030;-67
2023/08/19 03:11:55;;;;;;;11.88;6.03;;;;;;;16.98;100.00;96597.50;5033791;28;20108;-67
2023/08/19 03:14:20;;;;;;;11.75;5.07;;;;;;;16.94;100.00;96599.53;5033326;28;20057;-67
2023/08/19 03:16:46;;;;;;;16.35;6.30;;;;;;;17.02;100.00;96600.22;5033472;28;20059;-67
2023/08/19 03:19:14;;;;;;;13.77;6.32;;;;;;;17.09;100.00;96593.84;5032578;28;20029;-69
2023/08/19 03:21:39;;;;;;;14.23;5.82;;;;;;;17.02;100.00;96599.47;5033513;28;20105;-68
2023/08/19 03:24:05;;;;;;;14.43;5.38;;;;;;;16.72;100.00;96601.66;5033028;28;20453;-69
2023/08/19 03:26:31;;;;;;;10.05;5.25;;;;;;;16.77;100.00;96604.00;5033215;28;20025;-67
2023/08/19 03:28:56;;;;;;;7.97;5.15;;;;;;;16.82;100.00;96608.31;5033391;28;20038;-67
2023/08/19 03:31:21;;;;;;;12.63;5.28;;;;;;;16.90;100.00;96611.81;5033374;28;20368;-67
2023/08/19 03:33:48;;;;;;;11.02;5.38;;;;;;;16.94;100.00;96618.91;5033117;28;20060;-68
2023/08/19 03:36:13;;;;;;;13.90;5.28;;;;;;;16.99;100.00;96609.34;5033469;28;20387;-68
2023/08/19 03:38:39;;;;;;;13.40;5.15;;;;;;;17.02;100.00;96613.28;5032803;28;20121;-67
2023/08/19 03:41:04;;;;;;;14.82;5.60;;;;;;;17.07;100.00;96610.84;5033226;28;20411;-67
2023/08/19 03:43:30;;;;;;;12.02;5.30;;;;;;;17.04;100.00;96614.44;5033672;28;20116;-67
2023/08/19 03:45:55;;;;;;;9.75;5.75;;;;;;;17.02;100.00;96611.28;5033021;28;20038;-67
2023/08/19 03:48:20;;;;;;;9.60;5.60;;;;;;;16.97;100.00;96612.53;5032684;28;20502;-67
2023/08/19 03:50:46;;;;;;;9.73;5.57;;;;;;;16.97;100.00;96620.03;5032765;28;20053;-67
2023/08/19 03:53:11;;;;;;;10.38;5.63;;;;;;;17.00;100.00;96622.78;5032472;28;20501;-66
2023/08/19 03:55:36;;;;;;;8.07;5.75;;;;;;;16.98;100.00;96627.94;5033090;28;20029;-68
2023/08/19 03:58:02;;;;;;;14.18;6.05;;;;;;;16.92;100.00;96623.25;5032794;28;20084;-67
2023/08/19 04:00:27;;;;;;;10.13;5.57;;;;;;;16.88;100.00;96634.34;5032440;28;20075;-67
2023/08/19 04:02:53;;;;;;;14.45;5.97;;;;;;;16.92;100.00;96634.31;5032626;28;20390;-67
2023/08/19 04:05:19;;;;;;;13.82;5.88;;;;;;;16.95;100.00;96639.03;5032661;28;20552;-67
2023/08/19 04:07:44;;;;;;;11.70;5.68;;;;;;;16.82;100.00;96647.81;5032509;28;20029;-67
2023/08/19 04:10:10;;;;;;;13.30;5.40;;;;;;;16.90;100.00;96642.25;5032352;28;20548;-67
2023/08/19 04:12:36;;;;;;;8.20;5.45;;;;;;;16.90;100.00;96651.31;5032242;28;20509;-67
2023/08/19 04:15:02;;;;;;;12.32;6.00;;;;;;;16.93;100.00;96647.75;5032312;28;20112;-67
2023/08/19 04:17:27;;;;;;;11.52;5.43;;;;;;;16.97;100.00;96653.25;5035602;28;20034;-67
2023/08/19 04:19:52;;;;;;;13.35;5.65;;;;;;;16.97;100.00;96647.72;5034218;28;20065;-67
2023/08/19 04:22:18;;;;;;;17.10;5.70;;;;;;;17.02;100.00;96655.56;5032401;28;20044;-67
2023/08/19 04:24:50;;;;;;;10.80;5.78;;;;;;;17.04;100.00;96658.69;5032428;28;20034;-67
2023/08/19 04:27:15;;;;;;;12.23;5.38;;;;;;;16.98;100.00;96663.13;5032527;28;20075;-67
2023/08/19 04:29:40;;;;;;;12.45;5.50;;;;;;;16.96;100.00;96657.19;5032046;28;20108;-67
2023/08/19 04:32:06;;;;;;;14.73;5.45;;;;;;;17.01;100.00;96667.81;5031613;28;20030;-67
2023/08/19 04:34:31;;;;;;;14.13;5.75;;;;;;;17.02;100.00;96663.88;5032195;28;20101;-67
2023/08/19 04:36:57;;;;;;;11.07;5.45;;;;;;;17.09;100.00;96672.09;5032089;28;20025;-67
2023/08/19 04:39:23;;;;;;;10.95;5.25;;;;;;;17.14;100.00;96668.09;5031787;28;20449;-67
2023/08/19 04:41:50;;;;;;;14.20;6.10;;;;;;;17.15;100.00;96675.19;5032253;28;20045;-69
2023/08/19 04:44:16;;;;;;;9.80;5.22;;;;;;;17.11;100.00;96677.22;5031682;28;20084;-68
2023/08/19 04:46:41;;;;;;;11.20;5.47;;;;;;;17.16;100.00;96668.44;5032149;28;20084;-68
2023/08/19 04:49:07;;;;;;;15.90;5.65;;;;;;;17.16;100.00;96680.34;5032136;28;20421;-68
2023/08/19 04:51:33;;;;;;;13.68;5.32;;;;;;;17.19;100.00;96679.50;5031816;28;20037;-66
2023/08/19 04:53:59;;;;;;;10.93;5.70;;;;;;;17.18;100.00;96680.69;5031715;28;20128;-67
2023/08/19 04:56:24;;;;;;;15.23;5.38;;;;;;;17.15;100.00;96681.50;5031745;28;20043;-67
2023/08/19 04:58:50;;;;;;;17.52;5.97;;;;;;;17.04;100.00;96689.13;5031652;28;20034;-68
2023/08/19 05:01:15;;;;;;;15.23;6.20;;;;;;;17.14;100.00;96690.22;5031636;28;20076;-68
2023/08/19 05:03:40;;;;;;;15.20;5.45;;;;;;;17.38;100.00;96697.50;5031719;28;20037;-67
2023/08/19 05:06:06;;;;;;;12.80;5.65;;;;;;;17.58;100.00;96703.22;5030743;28;20052;-68
2023/08/19 05:08:32;;;;;;;13.68;5.57;;;;;;;17.83;100.00;96702.13;5031734;28;20040;-67
2023/08/19 05:10:57;;;;;;;11.85;5.22;;;;;;;17.76;100.00;96702.22;5031637;28;20092;-68
2023/08/19 05:13:22;;;;;;;11.43;5.30;;;;;;;17.84;100.00;96705.69;5031627;28;20505;-67
2023/08/19 05:15:48;;;;;;;12.80;4.70;;;;;;;18.34;100.00;96703.06;5031812;28;20083;-67
2023/08/19 05:18:13;;;;;;;8.45;4.82;;;;;;;19.54;100.00;96701.94;5031718;28;20033;-68
2023/08/19 05:20:39;;;;;;;8.65;4.18;;;;;;;20.74;100.00;96707.34;5031479;28;20112;-67
2023/08/19 05:23:04;;;;;;;8.80;4.47;;;;;;;22.04;95.71;96716.72;5031409;28;20021;-68
2023/08/19 05:25:29;;;;;;;9.10;3.78;;;;;;;23.25;84.76;96719.78;5031748;28;20029;-67
2023/08/19 05:27:56;;;;;;;7.35;3.95;;;;;;;24.36;76.25;96731.84;5031625;28;20033;-66
2023/08/19 05:30:22;;;;;;;9.13;3.85;;;;;;;25.15;69.46;96737.16;5031486;28;20022;-67
2023/08/19 05:32:48;;;;;;;10.55;3.60;;;;;;;25.69;65.23;96731.34;5032472;28;20556;-68
2023/08/19 05:35:13;;;;;;;10.07;4.00;;;;;;;26.16;60.41;96737.72;5031695;28;20090;-68
2023/08/19 05:37:39;;;;;;;11.90;4.05;;;;;;;24.80;65.70;96739.38;5031352;28;20040;-68
2023/08/19 05:40:05;;;;;;;8.77;3.30;;;;;;;25.14;66.73;96749.63;5031239;28;20033;-68
2023/08/19 05:42:30;;;;;;;7.72;3.78;;;;;;;26.02;63.72;96739.94;5031310;28;20083;-68
2023/08/19 05:44:56;;;;;;;8.20;3.25;;;;;;;27.22;57.78;96755.63;5034827;28;20045;-68
2023/08/19 05:47:21;;;;;;;11.18;3.65;;;;;;;28.06;53.76;96762.28;5034986;28;20068;-68
2023/08/19 05:49:46;;;;;;;13.35;3.70;;;;;;;28.69;51.29;96769.81;5034810;28;20040;-67
2023/08/19 05:52:12;;;;;;;10.43;3.35;;;;;;;29.07;50.39;96770.94;5034649;28;20040;-67
2023/08/19 05:54:37;;;;;;;9.02;4.05;;;;;;;29.77;48.47;96778.63;5034785;28;20029;-66
2023/08/19 05:57:03;;;;;;;7.78;3.25;;;;;;;29.98;46.96;96784.25;5035056;28;20040;-68
2023/08/19 05:59:28;;;;;;;5.68;2.90;;;;;;;30.20;45.73;96780.91;5034755;28;20032;-66
2023/08/19 06:01:53;;;;;;;10.00;3.83;;;;;;;30.25;45.43;96778.16;5033452;28;20033;-68
2023/08/19 06:04:19;;;;;;;11.23;3.13;;;;;;;30.36;43.98;96783.16;5034470;28;20114;-68
2023/08/19 06:06:44;;;;;;;11.75;3.63;;;;;;;30.47;44.29;96783.28;5039542;28;20041;-68
2023/08/19 06:09:10;;;;;;;10.55;3.30;;;;;;;30.36;44.19;96794.47;5041298;28;20034;-67
2023/08/19 06:11:49;;;;;;;7.75;3.17;;;;;;;30.84;42.94;96788.22;5036418;28;20025;-66
2023/08/19 06:14:15;;;;;;;10.88;3.25;;;;;;;29.79;46.46;96790.19;5034968;28;20483;-65
2023/08/19 06:16:41;;;;;;;11.27;3.53;;;;;;;27.62;52.71;96769.31;5034707;28;20064;-65
2023/08/19 06:19:07;;;;;;;9.00;4.38;;;;;;;26.39;55.76;96761.56;5035524;28;20026;-67
2023/08/19 06:21:33;;;;;;;12.05;4.32;;;;;;;25.06;67.93;96759.53;5034994;28;20033;-68
2023/08/19 06:23:58;;;;;;;9.48;4.47;;;;;;;25.31;67.37;96760.59;5034621;28;20430;-67
2023/08/19 06:26:25;;;;;;;10.18;3.75;;;;;;;25.38;63.54;96766.66;5034480;28;20056;-67
2023/08/19 06:28:50;;;;;;;9.32;4.40;;;;;;;25.31;67.02;96766.19;5034120;28;20087;-66
2023/08/19 06:31:16;;;;;;;9.73;4.22;;;;;;;26.77;60.36;96771.47;5033975;28;20033;-66
2023/08/19 06:33:42;;;;;;;8.18;3.47;;;;;;;28.44;53.68;96786.00;5033033;28;20062;-66
2023/08/19 06:36:10;;;;;;;9.65;4.25;;;;;;;26.73;57.66;96774.44;5033369;28;20638;-66
2023/08/19 06:38:40;;;;;;;14.90;3.80;;;;;;;28.12;54.95;96785.69;5033839;28;20098;-67
2023/08/19 06:41:11;;;;;;;;;;;;;;;27.25;57.66;96786.38;5034401;28;20030;-67
2023/08/19 06:43:38;;;;;;;12.00;4.50;;;;;;;24.97;70.45;96782.72;5033530;28;19909;-66
2023/08/19 06:46:05;;;;;;;7.90;4.68;;;;;;;25.51;68.45;96788.97;5034079;28;20120;-66
2023/08/19 06:48:31;;;;;;;9.13;4.32;;;;;;;28.37;56.46;96795.63;5033955;28;20426;-66
2023/08/19 06:50:57;;;;;;;9.00;4.00;;;;;;;27.10;59.99;96796.78;5034002;28;20478;-66
2023/08/19 06:53:23;;;;;;;7.97;4.07;;;;;;;28.42;57.42;96809.03;5033088;28;20033;-66
2023/08/19 06:56:27;;;;;;;6.15;4.13;;;;;;;30.39;50.58;96807.59;5033717;28;20044;-66
2023/08/19 06:59:02;;;;;;;12.07;4.07;;;;;;;32.09;45.42;96815.28;5033749;28;20502;-67
2023/08/19 07:01:30;;;;;;;11.57;4.00;;;;;;;33.02;43.31;96821.41;5033742;28;20381;-67
2023/08/19 07:03:57;;;;;;;13.35;4.40;;;;;;;32.96;43.03;96827.84;5033471;28;20037;-67
2023/08/19 07:06:23;;;;;;;11.57;4.18;;;;;;;33.28;42.22;96836.13;5033673;28;20108;-67
2023/08/19 07:08:49;;;;;;;13.80;4.53;;;;;;;32.51;43.70;96832.66;5033302;28;20066;-67
2023/08/19 07:11:15;;;;;;;9.52;3.88;;;;;;;32.95;43.05;96836.88;5033390;28;20033;-67
2023/08/19 07:13:41;;;;;;;8.88;3.80;;;;;;;33.82;40.26;96840.69;5032710;28;20087;-67
2023/08/19 07:16:12;;;;;;;9.70;3.80;;;;;;;33.40;42.03;96830.44;5033264;28;20034;-67
2023/08/19 07:18:40;;;;;;;13.20;3.42;;;;;;;33.67;41.59;96841.00;5033193;28;20509;-67
2023/08/19 07:21:12;;;;;;;12.23;4.03;;;;;;;34.04;40.31;96844.75;5033095;28;20044;-67
2023/08/19 07:23:40;;;;;;;11.05;3.75;;;;;;;35.27;38.49;96853.13;5033014;28;20029;-67
2023/08/19 07:26:06;;;;;;;7.75;3.72;;;;;;;33.71;40.91;96850.03;5032006;28;20056;-67
2023/08/19 07:28:32;;;;;;;9.55;3.60;;;;;;;33.13;43.02;96839.25;5033048;28;20045;-67
2023/08/19 07:30:58;;;;;;;10.23;3.65;;;;;;;34.63;39.78;96849.13;5033145;28;20498;-67
2023/08/19 07:33:24;;;;;;;6.50;3.47;;;;;;;33.57;41.58;96836.84;5032641;28;20064;-66
2023/08/19 07:35:49;;;;;;;10.45;4.07;;;;;;;31.68;44.53;96837.47;5032989;28;20598;-67
2023/08/19 07:38:15;;;;;;;11.70;3.97;;;;;;;32.94;42.95;96838.19;5032495;28;20025;-69
2023/08/19 07:40:40;;;;;;;13.95;4.63;;;;;;;28.70;54.82;96816.47;5032466;28;20076;-68
2023/08/19 07:43:06;;;;;;;10.07;4.65;;;;;;;29.63;53.21;96825.34;5032463;28;20038;-66
2023/08/19 07:45:31;;;;;;;8.43;4.68;;;;;;;28.58;55.37;96821.13;5032492;28;20029;-68
2023/08/19 07:47:56;;;;;;;9.20;4.47;;;;;;;30.23;52.16;96828.72;5032631;28;20021;-67
2023/08/19 07:50:23;;;;;;;11.90;4.38;;;;;;;31.08;49.50;96834.44;5032900;28;20028;-66
2023/08/19 07:52:48;;;;;;;14.10;5.32;;;;;;;32.09;46.69;96843.63;5032279;28;20505;-68
2023/08/19 07:55:14;;;;;;;8.27;3.58;;;;;;;33.86;42.72;96843.28;5032432;28;20037;-68
2023/08/19 07:57:39;;;;;;;12.05;4.40;;;;;;;33.47;42.70;96841.25;5032992;28;20021;-67
2023/08/19 08:00:05;;;;;;;9.05;3.90;;;;;;;34.20;41.27;96848.88;5032761;28;20033;-68
2023/08/19 08:02:31;;;;;;;10.07;4.38;;;;;;;35.18;38.67;96848.50;5031888;28;20125;-67
2023/08/19 08:04:56;;;;;;;11.50;4.10;;;;;;;35.30;37.83;96857.75;5032270;28;20568;-67
2023/08/19 08:07:22;;;;;;;12.63;4.35;;;;;;;34.97;38.44;96860.31;5032577;28;20029;-67
2023/08/19 08:09:48;;;;;;;10.85;3.75;;;;;;;34.88;38.91;96863.50;5032457;28;20116;-68
2023/08/19 08:12:13;;;;;;;9.68;4.57;;;;;;;32.83;40.83;96858.78;5032734;28;20069;-66
2023/08/19 08:14:41;;;;;;;9.37;4.13;;;;;;;33.58;40.68;96860.34;5032526;28;20026;-67
2023/08/19 08:17:07;;;;;;;9.13;3.90;;;;;;;34.95;38.83;96864.97;5033090;28;20036;-68
2023/08/19 08:19:32;;;;;;;11.45;4.15;;;;;;;35.15;36.97;96860.94;5032377;28;20124;-68
2023/08/19 08:21:58;;;;;;;13.13;4.57;;;;;;;33.92;38.83;96863.13;5032492;28;20458;-67
2023/08/19 08:24:23;;;;;;;9.63;4.40;;;;;;;35.00;37.05;96855.63;5030943;28;20033;-68
2023/08/19 08:26:49;;;;;;;10.73;3.78;;;;;;;35.24;37.06;96857.81;5032613;28;20038;-67
2023/08/19 08:29:15;;;;;;;7.40;3.47;;;;;;;34.14;39.11;96843.19;5032406;28;20036;-68
2023/08/19 08:31:41;;;;;;;7.65;3.35;;;;;;;34.53;39.25;96849.97;5032708;28;20053;-67
2023/08/19 08:34:07;;;;;;;9.93;4.05;;;;;;;35.32;36.96;96849.47;5032544;28;20386;-67
2023/08/19 08:36:32;;;;;;;13.27;4.05;;;;;;;34.63;38.22;96851.97;5032516;28;20061;-68
2023/08/19 08:38:58;;;;;;;11.70;4.47;;;;;;;34.53;38.69;96844.28;5032734;28;20068;-68
2023/08/19 08:41:24;;;;;;;12.73;4.20;;;;;;;34.32;38.27;96847.50;5033409;28;20068;-67
2023/08/19 08:43:52;;;;;;;12.02;4.32;;;;;;;33.63;39.65;96854.66;5032570;28;20040;-68
2023/08/19 08:46:19;;;;;;;11.35;4.43;;;;;;;34.19;39.94;96858.66;5032661;28;20041;-68
2023/08/19 08:48:46;;;;;;;13.60;4.40;;;;;;;34.09;40.01;96855.34;5032578;28;20026;-67
2023/08/19 08:51:14;;;;;;;12.55;4.70;;;;;;;33.39;41.00;96852.38;5032359;28;20445;-68
2023/08/19 08:53:39;;;;;;;14.98;4.43;;;;;;;32.99;41.69;96854.44;5032234;28;20029;-67
2023/08/19 08:56:06;;;;;;;12.65;4.35;;;;;;;33.67;40.41;96854.41;5032283;28;20048;-67
2023/08/19 08:58:31;;;;;;;9.68;3.83;;;;;;;33.87;40.63;96851.28;5032390;28;20115;-67
2023/08/19 09:01:00;;;;;;;12.32;4.75;;;;;;;34.22;38.67;96863.31;5030802;28;20108;-67
2023/08/19 09:03:30;;;;;;;13.50;5.20;;;;;;;33.54;40.52;96849.25;5032152;28;20116;-66
2023/08/19 09:05:58;;;;;;;10.43;4.68;;;;;;;33.41;40.78;96849.03;5032172;28;20041;-67
2023/08/19 09:08:58;;;;;;;12.35;4.50;;;;;;;32.86;41.53;96848.47;5032168;28;20032;-68
2023/08/19 09:11:26;;;;;;;10.00;4.07;;;;;;;33.48;40.97;96851.34;5032018;28;20030;-67
2023/08/19 09:13:59;;;;;;;8.68;4.28;;;;;;;34.44;38.85;96856.75;5032237;28;20036;-67
2023/08/19 09:16:24;;;;;;;9.95;4.40;;;;;;;34.02;39.21;96856.66;5031301;28;20045;-68
2023/08/19 09:18:51;;;;;;;10.82;4.05;;;;;;;34.17;39.23;96855.56;5036414;28;20040;-69
2023/08/19 09:21:16;;;;;;;9.55;3.95;;;;;;;34.56;38.41;96857.47;5036254;28;20091;-67
2023/08/19 09:23:42;;;;;;;7.70;4.30;;;;;;;34.80;38.46;96854.72;5036029;28;20030;-68
2023/08/19 09:26:10;;;;;;;11.63;3.80;;;;;;;35.17;36.95;96861.22;5034883;28;20040;-68
2023/08/19 09:28:37;;;;;;;8.50;3.88;;;;;;;35.23;37.36;96861.97;5036262;28;20040;-67
2023/08/19 09:31:29;;;;;;;7.72;3.88;;;;;;;36.12;35.91;96859.53;5037220;28;20029;-68
2023/08/19 09:33:54;;;;;;;7.43;4.22;;;;;;;34.98;38.16;96861.84;5034720;28;20049;-68
2023/08/19 09:36:24;;;;;;;16.17;4.35;;;;;;;34.88;37.41;96869.19;5036150;28;20364;-65
2023/08/19 09:38:56;;;;;;;10.07;4.18;;;;;;;34.93;37.12;96861.91;5035880;28;20072;-68
2023/08/19 09:41:29;;;;;;;8.00;4.25;;;;;;;34.73;37.43;96855.31;5035426;28;20418;-66
2023/08/19 09:43:56;;;;;;;11.73;3.97;;;;;;;34.16;38.79;96857.63;5035315;28;20033;-68
2023/08/19 09:46:32;;;;;;;10.15;4.00;;;;;;;33.84;39.92;96854.38;5035701;28;20029;-67
2023/08/19 09:48:58;;;;;;;11.57;4.03;;;;;;;34.43;39.11;96850.28;5035791;28;20033;-68
2023/08/19 09:51:24;;;;;;;8.90;4.18;;;;;;;34.63;38.31;96860.50;5035652;28;20548;-67
2023/08/19 09:53:50;;;;;;;12.82;3.92;;;;;;;34.09;39.19;96852.50;5035071;28;20037;-68
2023/08/19 09:56:27;;;;;;;9.38;4.07;;;;;;;34.13;39.31;96855.06;5035500;28;20030;-69
2023/08/19 09:58:57;;;;;;;8.73;4.15;;;;;;;32.77;41.33;96852.31;5033836;28;20031;-66
2023/08/19 10:01:25;;;;;;;14.90;3.97;;;;;;;33.99;39.91;96857.69;5035280;28;20382;-68
2023/08/19 10:03:51;;;;;;;9.30;3.93;;;;;;;33.44;40.53;96853.66;5034749;28;20033;-66
2023/08/19 10:06:23;;;;;;;12.48;4.20;;;;;;;33.40;41.21;96850.31;5034984;28;20100;-68
2023/08/19 10:08:51;;;;;;;12.68;4.25;;;;;;;33.64;40.67;96849.75;5035454;28;20398;-66
2023/08/19 10:11:17;;;;;;;9.50;4.22;;;;;;;33.58;40.77;96846.16;5034801;28;20034;-67
2023/08/19 10:13:45;;;;;;;11.18;4.20;;;;;;;33.65;40.22;96845.63;5034916;28;20390;-68
2023/08/19 10:16:13;;;;;;;10.93;4.37;;;;;;;33.78;39.39;96854.41;5034950;28;20612;-68
2023/08/19 10:18:41;;;;;;;14.98;4.72;;;;;;;32.74;42.29;96845.63;5034961;28;20364;-67
2023/08/19 10:21:10;;;;;;;14.88;4.47;;;;;;;33.35;40.46;96851.88;5033453;28;20482;-66
2023/08/19 10:23:39;;;;;;;9.43;3.85;;;;;;;33.93;39.94;96850.50;5034758;28;20041;-67
2023/08/19 10:26:06;;;;;;;10.80;4.13;;;;;;;34.45;38.15;96864.00;5033739;28;20060;-68
2023/08/19 10:28:33;;;;;;;8.95;4.13;;;;;;;33.28;40.57;96855.22;5034022;28;20131;-67
2023/08/19 10:31:08;;;;;;;6.95;4.22;;;;;;;33.80;39.79;96848.97;5034730;28;20060;-67
2023/08/19 10:33:41;;;;;;;8.50;3.83;;;;;;;33.74;39.58;96853.13;5033834;28;20065;-67
2023/08/19 10:36:08;;;;;;;10.38;3.83;;;;;;;33.84;39.18;96845.88;5034303;28;20099;-67
2023/08/19 10:38:47;;;;;;;11.88;3.80;;;;;;;33.73;38.54;96846.66;5033948;28;20576;-67
2023/08/19 10:41:38;;;;;;;10.93;4.57;;;;;;;32.51;41.28;96838.34;5034128;28;20108;-67
2023/08/19 10:44:13;;;;;;;8.25;3.97;;;;;;;32.32;40.76;96835.97;5032477;28;20397;-67
2023/08/19 10:46:39;;;;;;;10.57;4.53;;;;;;;32.08;41.09;96829.97;5034022;28;20025;-67
2023/08/19 10:49:07;;;;;;;13.23;4.30;;;;;;;32.45;40.94;96832.66;5033834;28;20030;-67
2023/08/19 10:52:05;;;;;;;8.48;3.90;;;;;;;32.52;39.99;96835.00;5033748;28;20021;-67
2023/08/19 10:54:43;;;;;;;9.75;4.03;;;;;;;32.63;40.86;96833.47;5033850;28;20084;-66
2023/08/19 10:57:13;;;;;;;9.40;4.25;;;;;;;32.16;41.66;96828.97;5033619;28;20483;-67
2023/08/19 10:59:41;;;;;;;12.93;4.90;;;;;;;32.53;41.73;96833.69;5034110;28;20040;-67
2023/08/19 11:02:08;;;;;;;11.35;4.47;;;;;;;32.35;42.16;96845.50;5033849;28;20040;-67
2023/08/19 11:04:36;;;;;;;9.93;4.00;;;;;;;32.17;42.56;96852.41;5035114;28;20060;-66
2023/08/19 11:07:04;;;;;;;11.00;4.35;;;;;;;32.03;41.57;96844.84;5033417;28;20037;-67
2023/08/19 11:09:29;;;;;;;11.50;4.53;;;;;;;31.61;43.81;96844.38;5033325;28;20036;-67
2023/08/19 11:11:56;;;;;;;9.35;4.35;;;;;;;30.68;44.26;96836.91;5032491;28;20029;-66
2023/08/19 11:14:22;;;;;;;8.65;4.78;;;;;;;30.51;45.33;96835.97;5033687;28;20025;-66
2023/08/19 11:16:48;;;;;;;10.50;4.38;;;;;;;30.27;45.85;96834.91;5033251;28;20039;-67
2023/08/19 11:19:14;;;;;;;10.75;4.57;;;;;;;30.25;46.17;96833.84;5032189;28;20040;-66
2023/08/19 11:21:42;;;;;;;12.07;4.10;;;;;;;30.37;47.23;96832.72;5033669;28;20033;-66
2023/08/19 11:24:07;;;;;;;11.27;4.70;;;;;;;30.57;46.66;96837.56;5032742;28;20036;-66